Flight Track Log - Related Links

Times and Time Zones

All times are in EDT time to prevent confusion due to time zone crossing. See the DAL268 flight status page for this flight to view local times or setup timezone preferences in your user account.

Time Position Orientation Groundspeed Altitude Reporting Facility
EDT Latitude Longitude Course Direction KTS MPH feet Rate Location/Type
Sat 06:22:24 PM 33.6167 -84.5000 101° East 221 254 3,100  Level Atlanta TRACON
Sat 06:23:24 PM 33.5833 -84.5833 244° Southwest 280 322 5,600 2,842 Climbing Atlanta TRACON
Sat 06:24:18 PM 33.5167 -84.5833 180° South 291 335 8,500 2,189 Climbing Atlanta TRACON
Sat 06:26:03 PM 33.4553 -84.4572 120° Southeast 277 319 11,400 1,891 Climbing Atlanta Center
Sat 06:27:00 PM 33.6593 -83.6891 101° East  Level FlightAware Approximate
Sat 06:27:03 PM 33.4578 -84.3300 89° East 328 377 13,700  Level Atlanta Center
Sat 06:28:03 PM 33.4894 -84.2033 73° East 364 419 15,900 2,100 Climbing Atlanta Center
Sat 06:29:03 PM 33.5417 -84.0786 63° Northeast 397 457 17,900 2,000 Climbing Atlanta Center
Sat 06:30:03 PM 33.5917 -83.9492 65° Northeast 416 479 19,900 1,900 Climbing Atlanta Center
Sat 06:31:03 PM 33.6269 -83.8092 73° East 431 496 21,700 1,650 Climbing Atlanta Center
Sat 06:32:03 PM 33.6622 -83.6519 75° East 436 502 23,200 1,450 Climbing Atlanta Center
Sat 06:33:03 PM 33.7158 -83.5044 66° East 459 528 24,600 1,400 Climbing Atlanta Center
Sat 06:34:03 PM 33.7736 -83.3592 64° Northeast 477 549 26,000 1,400 Climbing Atlanta Center
Sat 06:35:03 PM 33.8331 -83.2111 64° Northeast 482 555 27,400 1,200 Climbing Atlanta Center
Sat 06:36:03 PM 33.8906 -83.0603 65° Northeast 490 564 28,400 1,150 Climbing Atlanta Center
Sat 06:37:03 PM 33.9539 -82.9069 63° Northeast 497 572 29,700 1,250 Climbing Atlanta Center
Sat 06:38:03 PM 34.0150 -82.7531 64° Northeast 497 572 30,900 1,200 Climbing Atlanta Center
Sat 06:39:03 PM 34.0758 -82.5967 65° Northeast 504 580 32,100 1,000 Climbing Atlanta Center
Sat 06:40:03 PM 34.1306 -82.4628 64° Northeast 503 579 32,900 450 Climbing Atlanta Center
Sat 06:41:03 PM 34.1892 -82.3111 65° Northeast 492 566 33,000 50 Climbing Atlanta Center
Sat 06:42:03 PM 34.2494 -82.1592 64° Northeast 492 566 33,000  Level Atlanta Center
Sat 06:43:03 PM 34.3242 -82.0089 59° Northeast 499 574 33,000  Level Atlanta Center
Sat 06:44:03 PM 34.3969 -81.8636 59° Northeast 499 574 33,000  Level Atlanta Center
Sat 06:45:03 PM 34.4672 -81.7183 60° Northeast 499 574 33,000  Level Atlanta Center
Sat 06:46:03 PM 34.5394 -81.5700 59° Northeast 499 574 33,000  Level Atlanta Center
Sat 06:47:03 PM 34.6117 -81.4242 59° Northeast 504 580 33,000  Level Atlanta Center
Sat 06:48:03 PM 34.6936 -81.2597 59° Northeast 504 580 33,000  Level Atlanta Center
Sat 06:49:03 PM 34.7653 -81.1133 59° Northeast 504 580 33,000  Level Atlanta Center
Sat 06:50:03 PM 34.8369 -80.9639 60° Northeast 504 580 33,000  Level Atlanta Center
Sat 06:51:03 PM 34.9103 -80.8169 59° Northeast 504 580 33,000  Level Atlanta Center
Sat 06:52:03 PM 34.9833 -80.6672 59° Northeast 504 580 33,000  Level Atlanta Center
Sat 06:53:03 PM 35.0464 -80.5325 60° Northeast 504 580 33,000  Level Atlanta Center
Sat 06:54:03 PM 35.1192 -80.3797 60° Northeast 504 580 33,000  Level Atlanta Center
Sat 06:55:35 PM 35.2375 -80.1311 60° Northeast 519 597 33,000  Level Washington Center
Sat 06:56:35 PM 35.3097 -79.9825 59° Northeast 507 583 33,000  Level Washington Center
Sat 06:57:35 PM 35.3839 -79.8314 59° Northeast 507 583 33,000  Level Washington Center
Sat 06:58:35 PM 35.4542 -79.6769 61° Northeast 507 583 33,000  Level Washington Center
Sat 06:59:35 PM 35.5258 -79.5275 59° Northeast 512 589 33,000  Level Washington Center
Sat 07:00:35 PM 35.5978 -79.3725 60° Northeast 512 589 33,000  Level Washington Center
Sat 07:01:35 PM 35.6714 -79.2175 60° Northeast 512 589 33,000  Level Washington Center
Sat 07:02:35 PM 35.7425 -79.0672 60° Northeast 507 583 33,000  Level Washington Center
Sat 07:03:35 PM 35.8181 -78.9117 59° Northeast 512 589 33,000  Level Washington Center
Sat 07:04:35 PM 35.8786 -78.7528 65° Northeast 512 589 33,000  Level Washington Center
Sat 07:05:35 PM 35.8978 -78.5792 82° East 507 583 33,000  Level Washington Center
Sat 07:06:35 PM 35.9164 -78.4056 82° East 507 583 33,000  Level Washington Center
Sat 07:07:35 PM 35.9325 -78.2497 83° East 507 583 33,000  Level Washington Center
Sat 07:08:35 PM 35.9467 -78.0756 84° East 502 578 33,000  Level Washington Center
Sat 07:09:35 PM 35.9628 -77.9017 83° East 502 578 33,000  Level Washington Center
Sat 07:10:35 PM 35.9825 -77.7278 82° East 502 578 33,000  Level Washington Center
Sat 07:11:35 PM 36.0561 -77.5781 59° Northeast 490 564 33,000  Level Washington Center
Sat 07:12:35 PM 36.1461 -77.4336 52° Northeast 508 585 33,000  Level Washington Center
Sat 07:13:35 PM 36.2400 -77.2814 53° Northeast 514 592 33,000  Level Washington Center
Sat 07:14:35 PM 36.3297 -77.1339 53° Northeast 519 597 33,000  Level Washington Center
Sat 07:15:35 PM 36.4192 -76.9883 53° Northeast 525 604 33,000  Level Washington Center
Sat 07:16:35 PM 36.5064 -76.8453 53° Northeast 525 604 33,000 -50 Level Washington Center
Sat 07:17:35 PM 36.5975 -76.7019 52° Northeast 525 604 32,900  Descending Washington Center
Sat 07:18:35 PM 36.6900 -76.6072 39° Northeast 520 598 33,000 50 Climbing Washington Center
Sat 07:19:35 PM 36.8286 -76.4922 34° Northeast 527 606 33,000  Level Washington Center
Sat 07:20:35 PM 36.9483 -76.3922 34° Northeast 527 606 33,000  Level Washington Center
Sat 07:21:35 PM 37.0678 -76.2919 34° Northeast 520 598 33,000  Level Washington Center
Sat 07:22:35 PM 37.1914 -76.1914 33° Northeast 520 598 33,000  Level Washington Center
Sat 07:23:35 PM 37.3317 -76.0778 33° Northeast 526 605 33,000  Level Washington Center
Sat 07:24:35 PM 37.4406 -75.9894 33° Northeast 526 605 33,000  Level Washington Center
Sat 07:25:35 PM 37.5658 -75.8853 33° Northeast 531 611 33,000  Level Washington Center
Sat 07:26:35 PM 37.6892 -75.7808 34° Northeast 531 611 33,000  Level Washington Center
Sat 07:27:35 PM 37.8144 -75.6733 34° Northeast 531 611 33,000  Level Washington Center
Sat 07:28:35 PM 37.9394 -75.5681 34° Northeast 531 611 33,000 -50 Level Washington Center
Sat 07:29:35 PM 38.0647 -75.4625 34° Northeast 531 611 32,900  Descending Washington Center
Sat 07:30:35 PM 38.1981 -75.3831 25° Northeast 526 605 33,000 50 Climbing Washington Center
Sat 07:31:35 PM 38.3417 -75.2847 28° Northeast 526 605 33,000  Level Washington Center
Sat 07:32:35 PM 38.4769 -75.1992 26° Northeast 526 605 33,000 -50 Level Washington Center
Sat 07:33:35 PM 38.6058 -75.1136 27° Northeast 526 605 32,900 -50 Descending Washington Center
Sat 07:34:35 PM 38.7369 -75.0356 25° Northeast 526 605 32,900 -750 Level Washington Center
Sat 07:35:35 PM 38.8594 -74.9625 25° Northeast 507 583 31,400 -2,000 Descending Washington Center
Sat 07:36:35 PM 38.9758 -74.8842 28° Northeast 490 564 28,900 -2,350 Descending Washington Center
Sat 07:37:35 PM 39.0900 -74.8108 26° Northeast 467 537 26,700 -2,100 Descending Washington Center
Sat 07:38:35 PM 39.1872 -74.7133 38° Northeast 449 517 24,700 -1,850 Descending Washington Center
Sat 07:39:35 PM 39.2781 -74.6103 41° Northeast 437 503 23,000 -1,523 Descending Washington Center
Sat 07:41:48 PM 39.4700 -74.4014 40° Northeast 418 481 19,800 -1,257 Descending New York Center
Sat 07:42:46 PM 39.5519 -74.3086 41° Northeast 400 460 19,000 -407 Descending New York Center
Sat 07:43:46 PM 39.6253 -74.2289 40° Northeast 386 444 19,000 -900 Level New York Center
Sat 07:44:46 PM 39.7156 -74.1308 40° Northeast 380 437 17,200 -1,574 Descending New York Center
Sat 07:45:48 PM 39.7931 -74.0453 40° Northeast 369 425 15,800 -1,426 Descending New York Center
Sat 07:46:48 PM 39.8722 -73.9678 37° Northeast 364 419 14,300 -1,119 Descending New York Center
Sat 07:47:46 PM 39.9467 -73.9172 27° Northeast 344 396 13,600 -763 Descending New York Center
Sat 07:48:46 PM 40.0211 -73.8636 29° Northeast 318 366 12,800 -800 Descending New York Center
Sat 07:49:46 PM 40.0897 -73.8667 358° North 241 277 12,000 -397 Descending New York Center
Sat 07:50:47 PM 40.1067 -73.9297 289° West 168 193 12,000  Level New York Center
Sat 07:51:48 PM 40.0761 -73.9800 232° Southwest 133 153 12,000 -101 Level New York Center
Sat 07:52:46 PM 40.0253 -74.0156 208° Southwest 174 200 11,800 -508 Descending New York Center
Sat 07:53:46 PM 39.9700 -74.0536 208° Southwest 204 235 11,000 -397 Descending New York Center
Sat 07:54:47 PM 39.9192 -74.0864 206° Southwest 211 243 11,000  Level New York Center
Sat 07:55:47 PM 39.8708 -74.0219 134° Southeast 211 243 11,000  Level New York Center
Sat 07:56:49 PM 39.9167 -73.9483 51° Northeast 202 232 11,000  Level New York Center
Sat 07:57:48 PM 39.9747 -73.8806 42° Northeast 243 280 11,000  Level New York Center
Sat 07:58:47 PM 40.0411 -73.8103 39° Northeast 276 318 11,000 -50 Level New York Center
Sat 07:59:47 PM 40.1031 -73.7561 34° Northeast 281 323 10,900 -950 Descending New York Center
Sat 08:00:47 PM 40.1542 -73.7936 331° Northwest 201 231 9,100 -1,438 Descending New York Center
Sat 08:01:48 PM 40.1928 -73.8306 324° Northwest 185 213 8,000 -605 Descending New York Center
Sat 08:02:46 PM 40.2342 -73.7589 53° Northeast 162 186 7,900 -454 Descending New York Center
Sat 08:03:47 PM 40.2672 -73.6842 60° Northeast 197 227 7,100 -443 Descending New York Center
Sat 08:04:48 PM 40.3225 -73.6431 30° Northeast 224 258 7,000 -50 Descending New York Center
Sat 08:05:48 PM 40.3797 -73.6019 29° Northeast 230 265 7,000  Level New York Center
Sat 08:06:47 PM 40.4369 -73.5606 29° Northeast 236 272 7,000 -101 Level New York Center
Sat 08:07:47 PM 40.4922 -73.5192 30° Northeast 231 266 6,800 -837 Descending New York Center
Sat 08:08:56 PM 40.5500 -73.4667 35° Northeast 231 266 5,200 -837 Descending New York TRACON
Sat 08:09:56 PM 40.6167 -73.4167 30° Northeast 227 261 5,000 -100 Descending New York TRACON
Sat 08:10:56 PM 40.6667 -73.4167 360° North 215 247 5,000  Level New York TRACON
Sat 08:11:50 PM 40.7167 -73.4167 360° North 210 242 5,000 -474 Level New York TRACON
Sat 08:12:50 PM 40.7667 -73.4333 346° North 175 201 4,100 -800 Descending New York TRACON
Sat 08:13:50 PM 40.8167 -73.4667 333° Northwest 171 197 3,400 -550 Descending New York TRACON
Sat 08:14:50 PM 40.8333 -73.5167 294° West 168 193 3,000 -190 Descending New York TRACON
Sat 08:15:56 PM 40.8167 -73.5833 252° West 177 204 3,000  Level New York TRACON
Sat 08:16:56 PM 40.7667 -73.6167 207° Southwest 176 203 3,000 -400 Level New York TRACON
Sat 08:17:56 PM 40.7333 -73.6500 217° Southwest 161 185 2,200 -789 Descending New York TRACON
Sat 08:18:50 PM 40.7167 -73.6833 237° Southwest 139 160 1,500 -632 Descending New York TRACON
Sat 08:19:50 PM 40.6833 -73.7167 217° Southwest 136 157 1,000 -600 Descending New York TRACON
Sat 08:20:50 PM 40.6500 -73.7500 217° Southwest 132 152 300 -700 Descending New York TRACON

Login

Don't have an account? Register now (free) for customized features, flight alerts, and more!